sensor_id;sensor_type;location;lat;lon;timestamp;P1;durP1;ratioP1;P2;durP2;ratioP2
78834;SDS011;68187;42.682;23.352;2023-04-29T00:00:11;7.90;;;4.82;;
78834;SDS011;68187;42.682;23.352;2023-04-29T00:02:38;10.98;;;4.45;;
78834;SDS011;68187;42.682;23.352;2023-04-29T00:05:05;9.82;;;5.78;;
78834;SDS011;68187;42.682;23.352;2023-04-29T00:07:34;9.00;;;5.45;;
78834;SDS011;68187;42.682;23.352;2023-04-29T00:10:02;11.70;;;7.72;;
78834;SDS011;68187;42.682;23.352;2023-04-29T00:12:29;9.73;;;5.63;;
78834;SDS011;68187;42.682;23.352;2023-04-29T00:14:57;12.15;;;6.78;;
78834;SDS011;68187;42.682;23.352;2023-04-29T00:17:24;13.15;;;5.93;;
78834;SDS011;68187;42.682;23.352;2023-04-29T00:19:51;11.90;;;6.43;;
78834;SDS011;68187;42.682;23.352;2023-04-29T00:22:18;11.63;;;8.48;;
78834;SDS011;68187;42.682;23.352;2023-04-29T00:24:47;13.32;;;5.95;;
78834;SDS011;68187;42.682;23.352;2023-04-29T00:27:15;11.80;;;6.03;;
78834;SDS011;68187;42.682;23.352;2023-04-29T00:29:42;11.68;;;6.10;;
78834;SDS011;68187;42.682;23.352;2023-04-29T00:32:08;13.88;;;6.78;;
78834;SDS011;68187;42.682;23.352;2023-04-29T00:34:35;10.90;;;6.57;;
78834;SDS011;68187;42.682;23.352;2023-04-29T00:37:02;11.88;;;6.43;;
78834;SDS011;68187;42.682;23.352;2023-04-29T00:39:29;12.35;;;6.57;;
78834;SDS011;68187;42.682;23.352;2023-04-29T00:41:57;12.55;;;7.22;;
78834;SDS011;68187;42.682;23.352;2023-04-29T00:44:25;11.15;;;6.53;;
78834;SDS011;68187;42.682;23.352;2023-04-29T00:46:51;11.13;;;6.93;;
78834;SDS011;68187;42.682;23.352;2023-04-29T00:49:18;11.05;;;6.03;;
78834;SDS011;68187;42.682;23.352;2023-04-29T00:51:45;10.20;;;6.45;;
78834;SDS011;68187;42.682;23.352;2023-04-29T00:54:13;11.43;;;8.52;;
78834;SDS011;68187;42.682;23.352;2023-04-29T00:56:40;13.93;;;6.72;;
78834;SDS011;68187;42.682;23.352;2023-04-29T00:59:12;10.93;;;5.82;;
78834;SDS011;68187;42.682;23.352;2023-04-29T01:01:41;12.98;;;5.90;;
78834;SDS011;68187;42.682;23.352;2023-04-29T01:04:08;11.55;;;5.13;;
78834;SDS011;68187;42.682;23.352;2023-04-29T01:06:39;10.95;;;5.40;;
78834;SDS011;68187;42.682;23.352;2023-04-29T01:09:22;10.43;;;7.63;;
78834;SDS011;68187;42.682;23.352;2023-04-29T01:12:00;10.95;;;6.90;;
78834;SDS011;68187;42.682;23.352;2023-04-29T01:14:35;12.23;;;6.90;;
78834;SDS011;68187;42.682;23.352;2023-04-29T01:17:05;10.27;;;6.75;;
78834;SDS011;68187;42.682;23.352;2023-04-29T01:19:42;10.93;;;8.00;;
78834;SDS011;68187;42.682;23.352;2023-04-29T01:22:11;10.55;;;5.15;;
78834;SDS011;68187;42.682;23.352;2023-04-29T01:24:40;12.60;;;5.15;;
78834;SDS011;68187;42.682;23.352;2023-04-29T01:27:09;10.27;;;6.95;;
78834;SDS011;68187;42.682;23.352;2023-04-29T01:29:48;9.52;;;5.40;;
78834;SDS011;68187;42.682;23.352;2023-04-29T01:32:22;8.73;;;5.35;;
78834;SDS011;68187;42.682;23.352;2023-04-29T01:34:58;12.98;;;5.65;;
78834;SDS011;68187;42.682;23.352;2023-04-29T01:37:32;9.63;;;5.20;;
78834;SDS011;68187;42.682;23.352;2023-04-29T01:40:08;9.73;;;7.43;;
78834;SDS011;68187;42.682;23.352;2023-04-29T01:42:43;11.43;;;6.37;;
78834;SDS011;68187;42.682;23.352;2023-04-29T01:45:13;10.52;;;6.80;;
78834;SDS011;68187;42.682;23.352;2023-04-29T01:47:41;11.38;;;5.63;;
78834;SDS011;68187;42.682;23.352;2023-04-29T01:50:08;12.88;;;6.13;;
78834;SDS011;68187;42.682;23.352;2023-04-29T01:52:36;9.13;;;6.22;;
78834;SDS011;68187;42.682;23.352;2023-04-29T01:55:04;10.02;;;5.85;;
78834;SDS011;68187;42.682;23.352;2023-04-29T01:57:33;11.55;;;6.68;;
78834;SDS011;68187;42.682;23.352;2023-04-29T02:00:00;8.30;;;5.43;;
78834;SDS011;68187;42.682;23.352;2023-04-29T02:02:26;11.20;;;5.07;;
78834;SDS011;68187;42.682;23.352;2023-04-29T02:04:53;11.38;;;7.63;;
78834;SDS011;68187;42.682;23.352;2023-04-29T02:07:20;10.90;;;5.93;;
78834;SDS011;68187;42.682;23.352;2023-04-29T02:09:47;8.90;;;5.47;;
78834;SDS011;68187;42.682;23.352;2023-04-29T02:12:14;11.45;;;5.97;;
78834;SDS011;68187;42.682;23.352;2023-04-29T02:14:42;9.90;;;5.82;;
78834;SDS011;68187;42.682;23.352;2023-04-29T02:17:12;11.32;;;5.75;;
78834;SDS011;68187;42.682;23.352;2023-04-29T02:19:38;13.15;;;5.88;;
78834;SDS011;68187;42.682;23.352;2023-04-29T02:22:05;10.07;;;8.00;;
78834;SDS011;68187;42.682;23.352;2023-04-29T02:24:32;11.30;;;6.22;;
78834;SDS011;68187;42.682;23.352;2023-04-29T02:26:59;11.15;;;6.43;;
78834;SDS011;68187;42.682;23.352;2023-04-29T02:29:29;18.65;;;6.60;;
78834;SDS011;68187;42.682;23.352;2023-04-29T02:31:58;9.48;;;5.40;;
78834;SDS011;68187;42.682;23.352;2023-04-29T02:34:26;11.07;;;5.45;;
78834;SDS011;68187;42.682;23.352;2023-04-29T02:36:53;10.25;;;6.47;;
78834;SDS011;68187;42.682;23.352;2023-04-29T02:39:20;11.57;;;6.95;;
78834;SDS011;68187;42.682;23.352;2023-04-29T02:41:46;12.85;;;8.85;;
78834;SDS011;68187;42.682;23.352;2023-04-29T02:44:13;12.27;;;5.80;;
78834;SDS011;68187;42.682;23.352;2023-04-29T02:46:40;12.02;;;5.95;;
78834;SDS011;68187;42.682;23.352;2023-04-29T02:49:11;10.82;;;6.07;;
78834;SDS011;68187;42.682;23.352;2023-04-29T02:51:38;11.65;;;6.25;;
78834;SDS011;68187;42.682;23.352;2023-04-29T02:54:06;10.00;;;5.70;;
78834;SDS011;68187;42.682;23.352;2023-04-29T02:56:33;11.63;;;7.00;;
78834;SDS011;68187;42.682;23.352;2023-04-29T02:59:00;9.77;;;5.80;;
78834;SDS011;68187;42.682;23.352;2023-04-29T03:01:26;10.70;;;5.30;;
78834;SDS011;68187;42.682;23.352;2023-04-29T03:03:53;11.27;;;5.47;;
78834;SDS011;68187;42.682;23.352;2023-04-29T03:06:21;12.85;;;5.88;;
78834;SDS011;68187;42.682;23.352;2023-04-29T03:08:48;12.23;;;6.65;;
78834;SDS011;68187;42.682;23.352;2023-04-29T03:11:15;10.70;;;7.20;;
78834;SDS011;68187;42.682;23.352;2023-04-29T03:13:41;14.70;;;6.93;;
78834;SDS011;68187;42.682;23.352;2023-04-29T03:16:10;11.73;;;6.50;;
78834;SDS011;68187;42.682;23.352;2023-04-29T03:18:37;12.10;;;6.82;;
78834;SDS011;68187;42.682;23.352;2023-04-29T03:21:04;11.00;;;7.10;;
78834;SDS011;68187;42.682;23.352;2023-04-29T03:23:33;12.07;;;8.02;;
78834;SDS011;68187;42.682;23.352;2023-04-29T03:26:00;13.32;;;7.03;;
78834;SDS011;68187;42.682;23.352;2023-04-29T03:28:27;12.50;;;6.53;;
78834;SDS011;68187;42.682;23.352;2023-04-29T03:30:54;12.07;;;7.10;;
78834;SDS011;68187;42.682;23.352;2023-04-29T03:33:20;12.52;;;7.75;;
78834;SDS011;68187;42.682;23.352;2023-04-29T03:35:47;14.13;;;6.97;;
78834;SDS011;68187;42.682;23.352;2023-04-29T03:38:14;12.52;;;5.82;;
78834;SDS011;68187;42.682;23.352;2023-04-29T03:40:42;14.45;;;6.93;;
78834;SDS011;68187;42.682;23.352;2023-04-29T03:43:09;12.32;;;6.63;;
78834;SDS011;68187;42.682;23.352;2023-04-29T03:45:38;13.52;;;7.85;;
78834;SDS011;68187;42.682;23.352;2023-04-29T03:48:05;10.85;;;7.05;;
78834;SDS011;68187;42.682;23.352;2023-04-29T03:50:31;9.13;;;5.95;;
78834;SDS011;68187;42.682;23.352;2023-04-29T03:52:58;16.25;;;7.22;;
78834;SDS011;68187;42.682;23.352;2023-04-29T03:55:25;9.30;;;6.28;;
78834;SDS011;68187;42.682;23.352;2023-04-29T03:57:53;12.30;;;7.32;;
78834;SDS011;68187;42.682;23.352;2023-04-29T04:00:21;12.63;;;6.25;;
78834;SDS011;68187;42.682;23.352;2023-04-29T04:02:50;17.15;;;10.52;;
78834;SDS011;68187;42.682;23.352;2023-04-29T04:05:17;15.48;;;8.48;;
78834;SDS011;68187;42.682;23.352;2023-04-29T04:07:45;14.38;;;9.80;;
78834;SDS011;68187;42.682;23.352;2023-04-29T04:10:11;12.85;;;6.88;;
78834;SDS011;68187;42.682;23.352;2023-04-29T04:12:38;12.15;;;6.35;;
78834;SDS011;68187;42.682;23.352;2023-04-29T04:15:07;12.98;;;6.47;;
78834;SDS011;68187;42.682;23.352;2023-04-29T04:17:34;10.43;;;6.22;;
78834;SDS011;68187;42.682;23.352;2023-04-29T04:20:01;12.77;;;6.72;;
78834;SDS011;68187;42.682;23.352;2023-04-29T04:22:29;15.30;;;7.30;;
78834;SDS011;68187;42.682;23.352;2023-04-29T04:24:56;12.98;;;6.07;;
78834;SDS011;68187;42.682;23.352;2023-04-29T04:27:22;13.05;;;6.32;;
78834;SDS011;68187;42.682;23.352;2023-04-29T04:29:52;11.45;;;7.10;;
78834;SDS011;68187;42.682;23.352;2023-04-29T04:32:20;9.07;;;5.97;;
78834;SDS011;68187;42.682;23.352;2023-04-29T04:34:47;11.48;;;7.18;;
78834;SDS011;68187;42.682;23.352;2023-04-29T04:37:14;22.88;;;6.93;;
78834;SDS011;68187;42.682;23.352;2023-04-29T04:39:41;15.85;;;7.05;;
78834;SDS011;68187;42.682;23.352;2023-04-29T04:42:08;11.63;;;5.55;;
78834;SDS011;68187;42.682;23.352;2023-04-29T04:44:35;13.82;;;6.97;;
78834;SDS011;68187;42.682;23.352;2023-04-29T04:47:02;13.13;;;6.10;;
78834;SDS011;68187;42.682;23.352;2023-04-29T04:49:31;12.98;;;7.18;;
78834;SDS011;68187;42.682;23.352;2023-04-29T04:51:58;12.10;;;6.90;;
78834;SDS011;68187;42.682;23.352;2023-04-29T04:54:25;13.48;;;5.82;;
78834;SDS011;68187;42.682;23.352;2023-04-29T04:56:52;12.60;;;5.32;;
78834;SDS011;68187;42.682;23.352;2023-04-29T04:59:18;11.93;;;5.88;;
78834;SDS011;68187;42.682;23.352;2023-04-29T05:01:45;13.88;;;5.72;;
78834;SDS011;68187;42.682;23.352;2023-04-29T05:04:12;10.43;;;6.90;;
78834;SDS011;68187;42.682;23.352;2023-04-29T05:06:41;12.32;;;6.95;;
78834;SDS011;68187;42.682;23.352;2023-04-29T05:09:07;14.20;;;6.85;;
78834;SDS011;68187;42.682;23.352;2023-04-29T05:11:35;12.55;;;7.10;;
78834;SDS011;68187;42.682;23.352;2023-04-29T05:14:01;16.40;;;7.15;;
78834;SDS011;68187;42.682;23.352;2023-04-29T05:16:29;14.63;;;7.03;;
78834;SDS011;68187;42.682;23.352;2023-04-29T05:18:55;13.18;;;7.05;;
78834;SDS011;68187;42.682;23.352;2023-04-29T05:21:22;15.50;;;8.10;;
78834;SDS011;68187;42.682;23.352;2023-04-29T05:23:50;13.20;;;7.63;;
78834;SDS011;68187;42.682;23.352;2023-04-29T05:26:17;19.65;;;9.35;;
78834;SDS011;68187;42.682;23.352;2023-04-29T05:28:44;14.65;;;7.70;;
78834;SDS011;68187;42.682;23.352;2023-04-29T05:31:11;12.55;;;7.32;;
78834;SDS011;68187;42.682;23.352;2023-04-29T05:33:37;13.43;;;6.82;;
78834;SDS011;68187;42.682;23.352;2023-04-29T05:36:04;13.43;;;7.85;;
78834;SDS011;68187;42.682;23.352;2023-04-29T05:38:32;12.88;;;6.55;;
78834;SDS011;68187;42.682;23.352;2023-04-29T05:41:00;12.68;;;6.53;;
78834;SDS011;68187;42.682;23.352;2023-04-29T05:43:27;14.00;;;7.25;;
78834;SDS011;68187;42.682;23.352;2023-04-29T05:45:54;14.77;;;7.07;;
78834;SDS011;68187;42.682;23.352;2023-04-29T05:48:21;16.52;;;7.35;;
78834;SDS011;68187;42.682;23.352;2023-04-29T05:50:48;12.00;;;6.93;;
78834;SDS011;68187;42.682;23.352;2023-04-29T05:53:15;15.57;;;6.10;;
78834;SDS011;68187;42.682;23.352;2023-04-29T05:55:42;12.38;;;7.55;;
78834;SDS011;68187;42.682;23.352;2023-04-29T05:58:12;14.88;;;8.48;;
78834;SDS011;68187;42.682;23.352;2023-04-29T06:00:39;15.45;;;7.60;;
78834;SDS011;68187;42.682;23.352;2023-04-29T06:03:06;12.23;;;7.60;;
78834;SDS011;68187;42.682;23.352;2023-04-29T06:05:32;14.50;;;7.57;;
78834;SDS011;68187;42.682;23.352;2023-04-29T06:07:59;13.57;;;6.97;;
78834;SDS011;68187;42.682;23.352;2023-04-29T06:10:26;11.65;;;6.30;;
78834;SDS011;68187;42.682;23.352;2023-04-29T06:12:53;14.27;;;6.97;;
78834;SDS011;68187;42.682;23.352;2023-04-29T06:15:21;13.45;;;8.25;;
78834;SDS011;68187;42.682;23.352;2023-04-29T06:17:48;10.88;;;6.28;;
78834;SDS011;68187;42.682;23.352;2023-04-29T06:20:14;14.75;;;8.00;;
78834;SDS011;68187;42.682;23.352;2023-04-29T06:22:41;12.77;;;6.82;;
78834;SDS011;68187;42.682;23.352;2023-04-29T06:25:08;11.35;;;6.70;;
78834;SDS011;68187;42.682;23.352;2023-04-29T06:27:35;10.20;;;5.40;;
78834;SDS011;68187;42.682;23.352;2023-04-29T06:30:01;8.90;;;5.70;;
78834;SDS011;68187;42.682;23.352;2023-04-29T06:32:30;9.98;;;5.13;;
78834;SDS011;68187;42.682;23.352;2023-04-29T06:34:56;10.15;;;5.38;;
78834;SDS011;68187;42.682;23.352;2023-04-29T06:37:23;9.38;;;5.28;;
78834;SDS011;68187;42.682;23.352;2023-04-29T06:39:50;9.00;;;5.47;;
78834;SDS011;68187;42.682;23.352;2023-04-29T06:42:17;9.93;;;5.32;;
78834;SDS011;68187;42.682;23.352;2023-04-29T06:44:43;10.30;;;5.50;;
78834;SDS011;68187;42.682;23.352;2023-04-29T06:47:10;9.48;;;6.22;;
78834;SDS011;68187;42.682;23.352;2023-04-29T06:49:38;9.82;;;5.50;;
78834;SDS011;68187;42.682;23.352;2023-04-29T06:52:07;8.90;;;5.20;;
78834;SDS011;68187;42.682;23.352;2023-04-29T06:54:34;13.88;;;6.05;;
78834;SDS011;68187;42.682;23.352;2023-04-29T06:57:01;13.60;;;6.25;;
78834;SDS011;68187;42.682;23.352;2023-04-29T06:59:28;10.48;;;5.95;;
78834;SDS011;68187;42.682;23.352;2023-04-29T07:01:55;8.25;;;4.57;;
78834;SDS011;68187;42.682;23.352;2023-04-29T07:04:21;10.02;;;6.07;;
78834;SDS011;68187;42.682;23.352;2023-04-29T07:06:50;8.60;;;5.57;;
78834;SDS011;68187;42.682;23.352;2023-04-29T07:09:18;10.98;;;5.05;;
78834;SDS011;68187;42.682;23.352;2023-04-29T07:11:44;7.68;;;4.85;;
78834;SDS011;68187;42.682;23.352;2023-04-29T07:14:11;10.70;;;5.82;;
78834;SDS011;68187;42.682;23.352;2023-04-29T07:16:38;9.20;;;4.95;;
78834;SDS011;68187;42.682;23.352;2023-04-29T07:19:05;8.85;;;4.30;;
78834;SDS011;68187;42.682;23.352;2023-04-29T07:21:32;8.35;;;4.90;;
78834;SDS011;68187;42.682;23.352;2023-04-29T07:24:00;10.00;;;5.65;;
78834;SDS011;68187;42.682;23.352;2023-04-29T07:26:29;8.43;;;5.20;;
78834;SDS011;68187;42.682;23.352;2023-04-29T07:28:55;9.32;;;5.15;;
78834;SDS011;68187;42.682;23.352;2023-04-29T07:31:22;9.73;;;5.78;;
78834;SDS011;68187;42.682;23.352;2023-04-29T07:33:49;8.38;;;5.93;;
78834;SDS011;68187;42.682;23.352;2023-04-29T07:36:16;9.25;;;5.32;;
78834;SDS011;68187;42.682;23.352;2023-04-29T07:38:42;10.20;;;5.20;;
78834;SDS011;68187;42.682;23.352;2023-04-29T07:41:10;13.20;;;5.70;;
78834;SDS011;68187;42.682;23.352;2023-04-29T07:43:37;9.57;;;4.53;;
78834;SDS011;68187;42.682;23.352;2023-04-29T07:46:04;9.05;;;5.07;;
78834;SDS011;68187;42.682;23.352;2023-04-29T07:48:35;8.80;;;5.25;;
78834;SDS011;68187;42.682;23.352;2023-04-29T07:51:03;7.65;;;5.32;;
78834;SDS011;68187;42.682;23.352;2023-04-29T07:53:30;8.82;;;5.82;;
78834;SDS011;68187;42.682;23.352;2023-04-29T07:55:56;8.45;;;4.85;;
78834;SDS011;68187;42.682;23.352;2023-04-29T07:58:25;8.05;;;4.93;;
78834;SDS011;68187;42.682;23.352;2023-04-29T08:00:54;10.30;;;5.20;;
78834;SDS011;68187;42.682;23.352;2023-04-29T08:03:21;9.63;;;5.47;;
78834;SDS011;68187;42.682;23.352;2023-04-29T08:05:47;56.88;;;8.35;;
78834;SDS011;68187;42.682;23.352;2023-04-29T08:08:17;11.55;;;5.35;;
78834;SDS011;68187;42.682;23.352;2023-04-29T08:10:44;11.15;;;5.20;;
78834;SDS011;68187;42.682;23.352;2023-04-29T08:13:11;13.73;;;5.55;;
78834;SDS011;68187;42.682;23.352;2023-04-29T08:15:39;8.77;;;4.80;;
78834;SDS011;68187;42.682;23.352;2023-04-29T08:18:05;11.15;;;4.00;;
78834;SDS011;68187;42.682;23.352;2023-04-29T08:20:32;7.45;;;5.20;;
78834;SDS011;68187;42.682;23.352;2023-04-29T08:22:59;8.82;;;4.85;;
78834;SDS011;68187;42.682;23.352;2023-04-29T08:25:26;7.90;;;5.20;;
78834;SDS011;68187;42.682;23.352;2023-04-29T08:27:53;8.32;;;4.25;;
78834;SDS011;68187;42.682;23.352;2023-04-29T08:30:20;8.48;;;4.68;;
78834;SDS011;68187;42.682;23.352;2023-04-29T08:32:48;8.95;;;4.32;;
78834;SDS011;68187;42.682;23.352;2023-04-29T08:35:15;8.70;;;4.65;;
78834;SDS011;68187;42.682;23.352;2023-04-29T08:37:42;7.93;;;4.65;;
78834;SDS011;68187;42.682;23.352;2023-04-29T08:40:09;7.07;;;4.75;;
78834;SDS011;68187;42.682;23.352;2023-04-29T08:42:36;8.30;;;4.78;;
78834;SDS011;68187;42.682;23.352;2023-04-29T08:45:03;8.35;;;4.45;;
78834;SDS011;68187;42.682;23.352;2023-04-29T08:47:31;9.88;;;6.60;;
78834;SDS011;68187;42.682;23.352;2023-04-29T08:50:00;8.82;;;5.00;;
78834;SDS011;68187;42.682;23.352;2023-04-29T08:52:29;9.63;;;5.10;;
78834;SDS011;68187;42.682;23.352;2023-04-29T08:54:56;7.53;;;4.43;;
78834;SDS011;68187;42.682;23.352;2023-04-29T08:57:24;11.27;;;5.00;;
78834;SDS011;68187;42.682;23.352;2023-04-29T08:59:51;9.35;;;4.05;;
78834;SDS011;68187;42.682;23.352;2023-04-29T09:02:18;8.27;;;3.75;;
78834;SDS011;68187;42.682;23.352;2023-04-29T09:04:47;8.60;;;4.38;;
78834;SDS011;68187;42.682;23.352;2023-04-29T09:07:21;8.07;;;4.38;;
78834;SDS011;68187;42.682;23.352;2023-04-29T09:09:49;7.85;;;3.53;;
78834;SDS011;68187;42.682;23.352;2023-04-29T09:12:18;9.05;;;4.38;;
78834;SDS011;68187;42.682;23.352;2023-04-29T09:14:45;7.43;;;3.55;;
78834;SDS011;68187;42.682;23.352;2023-04-29T09:20:54;8.20;;;3.88;;
78834;SDS011;68187;42.682;23.352;2023-04-29T09:23:22;7.05;;;3.45;;
78834;SDS011;68187;42.682;23.352;2023-04-29T09:26:02;8.25;;;4.43;;
78834;SDS011;68187;42.682;23.352;2023-04-29T09:28:29;10.43;;;4.07;;
78834;SDS011;68187;42.682;23.352;2023-04-29T09:30:56;8.73;;;3.95;;
78834;SDS011;68187;42.682;23.352;2023-04-29T09:33:22;8.73;;;4.65;;
78834;SDS011;68187;42.682;23.352;2023-04-29T09:35:52;6.70;;;3.95;;
78834;SDS011;68187;42.682;23.352;2023-04-29T09:38:19;8.85;;;4.55;;
78834;SDS011;68187;42.682;23.352;2023-04-29T09:40:47;8.68;;;4.28;;
78834;SDS011;68187;42.682;23.352;2023-04-29T09:43:15;8.60;;;4.28;;
78834;SDS011;68187;42.682;23.352;2023-04-29T09:45:43;8.25;;;5.05;;
78834;SDS011;68187;42.682;23.352;2023-04-29T09:48:11;7.57;;;3.78;;
78834;SDS011;68187;42.682;23.352;2023-04-29T09:50:40;6.95;;;4.30;;
78834;SDS011;68187;42.682;23.352;2023-04-29T09:53:09;10.35;;;4.70;;
78834;SDS011;68187;42.682;23.352;2023-04-29T09:55:56;9.77;;;5.25;;
78834;SDS011;68187;42.682;23.352;2023-04-29T09:58:29;7.40;;;4.32;;
78834;SDS011;68187;42.682;23.352;2023-04-29T10:01:01;8.13;;;4.78;;
78834;SDS011;68187;42.682;23.352;2023-04-29T10:03:30;10.35;;;4.25;;
78834;SDS011;68187;42.682;23.352;2023-04-29T10:05:58;7.57;;;5.20;;
78834;SDS011;68187;42.682;23.352;2023-04-29T10:08:27;12.25;;;5.63;;
78834;SDS011;68187;42.682;23.352;2023-04-29T10:10:55;8.88;;;4.03;;
78834;SDS011;68187;42.682;23.352;2023-04-29T10:13:27;8.63;;;5.72;;
78834;SDS011;68187;42.682;23.352;2023-04-29T10:15:57;10.45;;;4.72;;
78834;SDS011;68187;42.682;23.352;2023-04-29T10:18:29;9.95;;;3.58;;
78834;SDS011;68187;42.682;23.352;2023-04-29T10:21:01;8.65;;;4.68;;
78834;SDS011;68187;42.682;23.352;2023-04-29T10:23:29;10.38;;;4.47;;
78834;SDS011;68187;42.682;23.352;2023-04-29T10:25:56;7.60;;;4.63;;
78834;SDS011;68187;42.682;23.352;2023-04-29T10:28:29;9.63;;;5.28;;
78834;SDS011;68187;42.682;23.352;2023-04-29T10:30:57;9.05;;;4.63;;
78834;SDS011;68187;42.682;23.352;2023-04-29T10:33:26;8.27;;;4.32;;
78834;SDS011;68187;42.682;23.352;2023-04-29T10:35:56;9.82;;;4.45;;
78834;SDS011;68187;42.682;23.352;2023-04-29T10:38:25;22.90;;;5.35;;
78834;SDS011;68187;42.682;23.352;2023-04-29T10:40:55;11.32;;;3.45;;
78834;SDS011;68187;42.682;23.352;2023-04-29T10:43:23;8.00;;;3.47;;
78834;SDS011;68187;42.682;23.352;2023-04-29T10:46:03;8.73;;;4.25;;
78834;SDS011;68187;42.682;23.352;2023-04-29T10:48:43;7.90;;;4.70;;
78834;SDS011;68187;42.682;23.352;2023-04-29T10:51:10;9.75;;;3.05;;
78834;SDS011;68187;42.682;23.352;2023-04-29T10:56:35;8.30;;;3.80;;
78834;SDS011;68187;42.682;23.352;2023-04-29T10:59:12;5.78;;;3.40;;
78834;SDS011;68187;42.682;23.352;2023-04-29T11:01:45;9.48;;;3.15;;
78834;SDS011;68187;42.682;23.352;2023-04-29T11:04:13;7.40;;;3.17;;
78834;SDS011;68187;42.682;23.352;2023-04-29T11:06:41;8.77;;;3.20;;
78834;SDS011;68187;42.682;23.352;2023-04-29T11:09:11;9.05;;;2.97;;
78834;SDS011;68187;42.682;23.352;2023-04-29T11:14:29;8.45;;;2.38;;
78834;SDS011;68187;42.682;23.352;2023-04-29T11:16:59;5.70;;;2.63;;
78834;SDS011;68187;42.682;23.352;2023-04-29T11:19:30;6.55;;;2.63;;
78834;SDS011;68187;42.682;23.352;2023-04-29T11:22:08;6.95;;;3.40;;
78834;SDS011;68187;42.682;23.352;2023-04-29T11:24:47;8.82;;;4.15;;
78834;SDS011;68187;42.682;23.352;2023-04-29T11:27:15;5.75;;;2.25;;
78834;SDS011;68187;42.682;23.352;2023-04-29T11:29:44;6.82;;;3.10;;
78834;SDS011;68187;42.682;23.352;2023-04-29T11:32:13;7.45;;;1.58;;
78834;SDS011;68187;42.682;23.352;2023-04-29T11:34:39;6.55;;;2.15;;
78834;SDS011;68187;42.682;23.352;2023-04-29T11:37:07;5.88;;;2.80;;
78834;SDS011;68187;42.682;23.352;2023-04-29T11:39:34;5.80;;;2.80;;
78834;SDS011;68187;42.682;23.352;2023-04-29T11:42:02;4.10;;;1.48;;
78834;SDS011;68187;42.682;23.352;2023-04-29T11:44:29;6.28;;;2.05;;
78834;SDS011;68187;42.682;23.352;2023-04-29T11:47:00;4.50;;;1.90;;
78834;SDS011;68187;42.682;23.352;2023-04-29T11:49:30;14.43;;;1.75;;
78834;SDS011;68187;42.682;23.352;2023-04-29T11:51:57;7.13;;;3.25;;
78834;SDS011;68187;42.682;23.352;2023-04-29T11:54:24;4.68;;;2.17;;
78834;SDS011;68187;42.682;23.352;2023-04-29T11:56:52;3.50;;;1.40;;
78834;SDS011;68187;42.682;23.352;2023-04-29T11:59:20;5.53;;;1.45;;
78834;SDS011;68187;42.682;23.352;2023-04-29T12:01:47;4.72;;;2.58;;
78834;SDS011;68187;42.682;23.352;2023-04-29T12:04:14;7.10;;;1.80;;
78834;SDS011;68187;42.682;23.352;2023-04-29T12:06:42;4.85;;;1.38;;
78834;SDS011;68187;42.682;23.352;2023-04-29T12:09:09;4.10;;;1.98;;
78834;SDS011;68187;42.682;23.352;2023-04-29T12:11:36;5.78;;;1.23;;
78834;SDS011;68187;42.682;23.352;2023-04-29T12:14:03;4.30;;;2.63;;
78834;SDS011;68187;42.682;23.352;2023-04-29T12:16:31;7.22;;;1.65;;
78834;SDS011;68187;42.682;23.352;2023-04-29T12:18:59;6.47;;;2.00;;
78834;SDS011;68187;42.682;23.352;2023-04-29T12:21:26;5.82;;;1.60;;
78834;SDS011;68187;42.682;23.352;2023-04-29T12:23:57;6.45;;;2.10;;
78834;SDS011;68187;42.682;23.352;2023-04-29T12:26:26;5.63;;;2.67;;
78834;SDS011;68187;42.682;23.352;2023-04-29T12:28:55;4.72;;;2.30;;
78834;SDS011;68187;42.682;23.352;2023-04-29T12:31:23;4.28;;;1.10;;
78834;SDS011;68187;42.682;23.352;2023-04-29T12:33:57;3.67;;;1.17;;
78834;SDS011;68187;42.682;23.352;2023-04-29T12:36:24;3.72;;;2.72;;
78834;SDS011;68187;42.682;23.352;2023-04-29T12:38:51;6.15;;;2.38;;
78834;SDS011;68187;42.682;23.352;2023-04-29T12:41:34;4.93;;;1.98;;
78834;SDS011;68187;42.682;23.352;2023-04-29T12:44:02;4.50;;;1.85;;
78834;SDS011;68187;42.682;23.352;2023-04-29T12:46:32;6.57;;;3.10;;
78834;SDS011;68187;42.682;23.352;2023-04-29T12:49:00;5.22;;;1.65;;
78834;SDS011;68187;42.682;23.352;2023-04-29T12:51:28;4.75;;;2.03;;
78834;SDS011;68187;42.682;23.352;2023-04-29T12:53:56;5.20;;;1.35;;
78834;SDS011;68187;42.682;23.352;2023-04-29T12:56:24;6.60;;;1.52;;
78834;SDS011;68187;42.682;23.352;2023-04-29T12:58:51;4.80;;;1.77;;
78834;SDS011;68187;42.682;23.352;2023-04-29T13:01:18;6.15;;;3.33;;
78834;SDS011;68187;42.682;23.352;2023-04-29T13:03:44;5.65;;;2.78;;
78834;SDS011;68187;42.682;23.352;2023-04-29T13:06:11;8.63;;;2.47;;
78834;SDS011;68187;42.682;23.352;2023-04-29T13:08:38;4.82;;;2.65;;
78834;SDS011;68187;42.682;23.352;2023-04-29T13:11:06;6.30;;;1.73;;
78834;SDS011;68187;42.682;23.352;2023-04-29T13:13:34;5.05;;;1.80;;
78834;SDS011;68187;42.682;23.352;2023-04-29T13:16:00;7.70;;;3.20;;
78834;SDS011;68187;42.682;23.352;2023-04-29T13:18:27;6.20;;;1.73;;
78834;SDS011;68187;42.682;23.352;2023-04-29T13:20:54;6.93;;;3.90;;
78834;SDS011;68187;42.682;23.352;2023-04-29T13:23:20;4.95;;;3.53;;
78834;SDS011;68187;42.682;23.352;2023-04-29T13:25:48;4.90;;;1.55;;
78834;SDS011;68187;42.682;23.352;2023-04-29T13:28:15;5.03;;;2.45;;
78834;SDS011;68187;42.682;23.352;2023-04-29T13:30:43;3.67;;;1.65;;
78834;SDS011;68187;42.682;23.352;2023-04-29T13:33:10;4.95;;;1.35;;
78834;SDS011;68187;42.682;23.352;2023-04-29T13:35:37;4.20;;;2.60;;
78834;SDS011;68187;42.682;23.352;2023-04-29T13:38:05;17.17;;;1.20;;
78834;SDS011;68187;42.682;23.352;2023-04-29T13:40:32;4.97;;;1.20;;
78834;SDS011;68187;42.682;23.352;2023-04-29T13:42:59;3.83;;;1.60;;
78834;SDS011;68187;42.682;23.352;2023-04-29T13:45:25;3.42;;;1.58;;
78834;SDS011;68187;42.682;23.352;2023-04-29T13:47:53;4.13;;;1.88;;
78834;SDS011;68187;42.682;23.352;2023-04-29T13:50:20;4.03;;;1.58;;
78834;SDS011;68187;42.682;23.352;2023-04-29T13:52:47;3.50;;;1.20;;
78834;SDS011;68187;42.682;23.352;2023-04-29T13:55:14;5.05;;;1.70;;
78834;SDS011;68187;42.682;23.352;2023-04-29T13:57:40;3.45;;;1.77;;
78834;SDS011;68187;42.682;23.352;2023-04-29T14:00:09;4.70;;;1.60;;
78834;SDS011;68187;42.682;23.352;2023-04-29T14:02:37;3.75;;;1.48;;
78834;SDS011;68187;42.682;23.352;2023-04-29T14:05:05;5.88;;;1.90;;
78834;SDS011;68187;42.682;23.352;2023-04-29T14:07:33;5.30;;;2.53;;
78834;SDS011;68187;42.682;23.352;2023-04-29T14:10:00;4.25;;;1.20;;
78834;SDS011;68187;42.682;23.352;2023-04-29T14:12:28;5.25;;;1.58;;
78834;SDS011;68187;42.682;23.352;2023-04-29T14:14:55;4.03;;;1.73;;
78834;SDS011;68187;42.682;23.352;2023-04-29T14:17:22;3.78;;;1.15;;
78834;SDS011;68187;42.682;23.352;2023-04-29T14:19:48;4.85;;;2.20;;
78834;SDS011;68187;42.682;23.352;2023-04-29T14:22:16;4.13;;;1.42;;
78834;SDS011;68187;42.682;23.352;2023-04-29T14:24:43;4.70;;;1.65;;
78834;SDS011;68187;42.682;23.352;2023-04-29T14:27:10;4.53;;;1.35;;
78834;SDS011;68187;42.682;23.352;2023-04-29T14:29:37;4.65;;;1.35;;
78834;SDS011;68187;42.682;23.352;2023-04-29T14:32:03;4.93;;;2.10;;
78834;SDS011;68187;42.682;23.352;2023-04-29T14:34:31;5.07;;;1.60;;
78834;SDS011;68187;42.682;23.352;2023-04-29T14:36:58;5.20;;;1.48;;
78834;SDS011;68187;42.682;23.352;2023-04-29T14:39:26;5.05;;;2.05;;
78834;SDS011;68187;42.682;23.352;2023-04-29T14:41:53;4.45;;;1.75;;